sensor_id;sensor_type;location;lat;lon;timestamp;P1;durP1;ratioP1;P2;durP2;ratioP2
72949;SDS011;62720;45.710;9.590;2022-10-17T00:00:23;39.60;;;24.87;;
72949;SDS011;62720;45.710;9.590;2022-10-17T00:02:48;45.00;;;27.02;;
72949;SDS011;62720;45.710;9.590;2022-10-17T00:05:13;44.70;;;27.30;;
72949;SDS011;62720;45.710;9.590;2022-10-17T00:07:39;40.17;;;24.98;;
72949;SDS011;62720;45.710;9.590;2022-10-17T00:10:05;43.23;;;27.03;;
72949;SDS011;62720;45.710;9.590;2022-10-17T00:12:30;37.63;;;25.42;;
72949;SDS011;62720;45.710;9.590;2022-10-17T00:14:56;41.85;;;26.02;;
72949;SDS011;62720;45.710;9.590;2022-10-17T00:17:21;44.88;;;25.23;;
72949;SDS011;62720;45.710;9.590;2022-10-17T00:19:46;46.70;;;25.83;;
72949;SDS011;62720;45.710;9.590;2022-10-17T00:22:11;40.28;;;25.63;;
72949;SDS011;62720;45.710;9.590;2022-10-17T00:24:37;43.55;;;27.05;;
72949;SDS011;62720;45.710;9.590;2022-10-17T00:27:02;40.70;;;24.60;;
72949;SDS011;62720;45.710;9.590;2022-10-17T00:29:27;40.65;;;24.88;;
72949;SDS011;62720;45.710;9.590;2022-10-17T00:31:53;41.42;;;26.25;;
72949;SDS011;62720;45.710;9.590;2022-10-17T00:34:19;41.63;;;25.85;;
72949;SDS011;62720;45.710;9.590;2022-10-17T00:36:45;42.40;;;25.27;;
72949;SDS011;62720;45.710;9.590;2022-10-17T00:39:10;41.70;;;25.70;;
72949;SDS011;62720;45.710;9.590;2022-10-17T00:41:35;44.80;;;26.00;;
72949;SDS011;62720;45.710;9.590;2022-10-17T00:44:02;45.87;;;27.70;;
72949;SDS011;62720;45.710;9.590;2022-10-17T00:46:32;40.10;;;26.75;;
72949;SDS011;62720;45.710;9.590;2022-10-17T00:48:58;43.10;;;26.80;;
72949;SDS011;62720;45.710;9.590;2022-10-17T00:51:40;43.70;;;25.88;;
72949;SDS011;62720;45.710;9.590;2022-10-17T00:54:07;40.60;;;24.80;;
72949;SDS011;62720;45.710;9.590;2022-10-17T00:56:33;45.10;;;26.63;;
72949;SDS011;62720;45.710;9.590;2022-10-17T00:58:58;44.95;;;25.85;;
72949;SDS011;62720;45.710;9.590;2022-10-17T01:01:24;37.55;;;24.23;;
72949;SDS011;62720;45.710;9.590;2022-10-17T01:03:49;40.28;;;25.42;;
72949;SDS011;62720;45.710;9.590;2022-10-17T01:06:14;42.33;;;25.92;;
72949;SDS011;62720;45.710;9.590;2022-10-17T01:08:40;41.60;;;25.77;;
72949;SDS011;62720;45.710;9.590;2022-10-17T01:14:08;40.97;;;24.80;;
72949;SDS011;62720;45.710;9.590;2022-10-17T01:16:38;41.22;;;25.17;;
72949;SDS011;62720;45.710;9.590;2022-10-17T01:21:55;41.35;;;24.88;;
72949;SDS011;62720;45.710;9.590;2022-10-17T01:27:12;40.97;;;26.02;;
72949;SDS011;62720;45.710;9.590;2022-10-17T01:32:14;37.88;;;23.13;;
72949;SDS011;62720;45.710;9.590;2022-10-17T01:37:25;40.67;;;24.33;;
72949;SDS011;62720;45.710;9.590;2022-10-17T01:39:53;36.97;;;23.52;;
72949;SDS011;62720;45.710;9.590;2022-10-17T01:42:24;40.33;;;25.05;;
72949;SDS011;62720;45.710;9.590;2022-10-17T01:47:20;37.55;;;24.45;;
72949;SDS011;62720;45.710;9.590;2022-10-17T01:49:48;38.83;;;23.48;;
72949;SDS011;62720;45.710;9.590;2022-10-17T01:52:17;46.30;;;25.35;;
72949;SDS011;62720;45.710;9.590;2022-10-17T01:54:50;42.22;;;25.15;;
72949;SDS011;62720;45.710;9.590;2022-10-17T01:57:22;43.25;;;26.42;;
72949;SDS011;62720;45.710;9.590;2022-10-17T01:59:50;39.17;;;24.08;;
72949;SDS011;62720;45.710;9.590;2022-10-17T02:02:17;38.40;;;23.95;;
72949;SDS011;62720;45.710;9.590;2022-10-17T02:04:43;37.30;;;23.42;;
72949;SDS011;62720;45.710;9.590;2022-10-17T02:07:09;42.25;;;24.88;;
72949;SDS011;62720;45.710;9.590;2022-10-17T02:09:35;40.80;;;25.42;;
72949;SDS011;62720;45.710;9.590;2022-10-17T02:14:36;40.15;;;25.75;;
72949;SDS011;62720;45.710;9.590;2022-10-17T02:24:26;38.83;;;23.73;;
72949;SDS011;62720;45.710;9.590;2022-10-17T02:29:34;37.17;;;23.55;;
72949;SDS011;62720;45.710;9.590;2022-10-17T02:34:30;40.60;;;26.05;;
72949;SDS011;62720;45.710;9.590;2022-10-17T02:36:57;37.22;;;24.27;;
72949;SDS011;62720;45.710;9.590;2022-10-17T02:39:24;36.85;;;22.60;;
72949;SDS011;62720;45.710;9.590;2022-10-17T02:41:50;43.88;;;24.50;;
72949;SDS011;62720;45.710;9.590;2022-10-17T02:44:16;41.08;;;24.48;;
72949;SDS011;62720;45.710;9.590;2022-10-17T02:46:42;40.50;;;22.65;;
72949;SDS011;62720;45.710;9.590;2022-10-17T02:49:16;38.53;;;23.23;;
72949;SDS011;62720;45.710;9.590;2022-10-17T02:51:51;37.35;;;24.08;;
72949;SDS011;62720;45.710;9.590;2022-10-17T02:56:47;40.22;;;25.38;;
72949;SDS011;62720;45.710;9.590;2022-10-17T03:01:39;37.13;;;22.30;;
72949;SDS011;62720;45.710;9.590;2022-10-17T03:04:05;39.58;;;24.88;;
72949;SDS011;62720;45.710;9.590;2022-10-17T03:06:31;40.47;;;23.98;;
72949;SDS011;62720;45.710;9.590;2022-10-17T03:08:56;42.40;;;24.10;;
72949;SDS011;62720;45.710;9.590;2022-10-17T03:11:22;41.60;;;23.67;;
72949;SDS011;62720;45.710;9.590;2022-10-17T03:13:47;40.67;;;25.47;;
72949;SDS011;62720;45.710;9.590;2022-10-17T03:16:12;39.23;;;23.93;;
72949;SDS011;62720;45.710;9.590;2022-10-17T03:18:37;41.20;;;23.07;;
72949;SDS011;62720;45.710;9.590;2022-10-17T03:21:02;39.53;;;24.15;;
72949;SDS011;62720;45.710;9.590;2022-10-17T03:23:28;40.78;;;24.90;;
72949;SDS011;62720;45.710;9.590;2022-10-17T03:25:53;36.72;;;21.85;;
72949;SDS011;62720;45.710;9.590;2022-10-17T03:28:18;40.38;;;23.80;;
72949;SDS011;62720;45.710;9.590;2022-10-17T03:30:44;41.40;;;23.60;;
72949;SDS011;62720;45.710;9.590;2022-10-17T03:33:09;39.50;;;23.60;;
72949;SDS011;62720;45.710;9.590;2022-10-17T03:35:34;38.77;;;22.37;;
72949;SDS011;62720;45.710;9.590;2022-10-17T03:38:02;39.97;;;24.33;;
72949;SDS011;62720;45.710;9.590;2022-10-17T03:40:27;38.38;;;23.58;;
72949;SDS011;62720;45.710;9.590;2022-10-17T03:42:52;35.63;;;21.92;;
72949;SDS011;62720;45.710;9.590;2022-10-17T03:45:18;38.87;;;22.43;;
72949;SDS011;62720;45.710;9.590;2022-10-17T03:47:44;40.22;;;23.83;;
72949;SDS011;62720;45.710;9.590;2022-10-17T03:50:09;37.90;;;22.67;;
72949;SDS011;62720;45.710;9.590;2022-10-17T03:52:35;36.28;;;20.85;;
72949;SDS011;62720;45.710;9.590;2022-10-17T03:55:01;38.65;;;23.00;;
72949;SDS011;62720;45.710;9.590;2022-10-17T03:57:26;38.08;;;22.77;;
72949;SDS011;62720;45.710;9.590;2022-10-17T03:59:51;38.08;;;21.75;;
72949;SDS011;62720;45.710;9.590;2022-10-17T04:02:16;34.85;;;22.08;;
72949;SDS011;62720;45.710;9.590;2022-10-17T04:04:42;38.33;;;21.48;;
72949;SDS011;62720;45.710;9.590;2022-10-17T04:07:07;37.58;;;22.30;;
72949;SDS011;62720;45.710;9.590;2022-10-17T04:09:39;37.85;;;21.88;;
72949;SDS011;62720;45.710;9.590;2022-10-17T04:12:07;41.40;;;23.45;;
72949;SDS011;62720;45.710;9.590;2022-10-17T04:14:43;39.70;;;23.35;;
72949;SDS011;62720;45.710;9.590;2022-10-17T04:17:09;38.42;;;23.08;;
72949;SDS011;62720;45.710;9.590;2022-10-17T04:19:34;41.72;;;23.33;;
72949;SDS011;62720;45.710;9.590;2022-10-17T04:21:59;39.85;;;21.92;;
72949;SDS011;62720;45.710;9.590;2022-10-17T04:24:27;35.58;;;22.08;;
72949;SDS011;62720;45.710;9.590;2022-10-17T04:26:53;38.30;;;22.67;;
72949;SDS011;62720;45.710;9.590;2022-10-17T04:29:18;37.83;;;20.65;;
72949;SDS011;62720;45.710;9.590;2022-10-17T04:31:44;38.17;;;21.95;;
72949;SDS011;62720;45.710;9.590;2022-10-17T04:34:09;38.13;;;22.13;;
72949;SDS011;62720;45.710;9.590;2022-10-17T04:36:34;37.40;;;21.58;;
72949;SDS011;62720;45.710;9.590;2022-10-17T04:39:00;35.00;;;21.00;;
72949;SDS011;62720;45.710;9.590;2022-10-17T04:41:29;33.55;;;20.13;;
72949;SDS011;62720;45.710;9.590;2022-10-17T04:43:55;35.67;;;21.35;;
72949;SDS011;62720;45.710;9.590;2022-10-17T04:46:20;35.70;;;20.37;;
72949;SDS011;62720;45.710;9.590;2022-10-17T04:48:45;31.57;;;21.07;;
72949;SDS011;62720;45.710;9.590;2022-10-17T04:51:12;36.07;;;21.90;;
72949;SDS011;62720;45.710;9.590;2022-10-17T04:53:37;37.28;;;21.33;;
72949;SDS011;62720;45.710;9.590;2022-10-17T04:56:07;39.53;;;22.38;;
72949;SDS011;62720;45.710;9.590;2022-10-17T04:58:32;35.42;;;21.00;;
72949;SDS011;62720;45.710;9.590;2022-10-17T05:00:57;41.20;;;21.87;;
72949;SDS011;62720;45.710;9.590;2022-10-17T05:03:22;35.80;;;20.13;;
72949;SDS011;62720;45.710;9.590;2022-10-17T05:05:48;36.13;;;20.88;;
72949;SDS011;62720;45.710;9.590;2022-10-17T05:08:13;37.93;;;20.67;;
72949;SDS011;62720;45.710;9.590;2022-10-17T05:10:39;30.63;;;19.23;;
72949;SDS011;62720;45.710;9.590;2022-10-17T05:13:05;31.88;;;20.33;;
72949;SDS011;62720;45.710;9.590;2022-10-17T05:15:30;34.03;;;20.33;;
72949;SDS011;62720;45.710;9.590;2022-10-17T05:17:56;31.15;;;18.80;;
72949;SDS011;62720;45.710;9.590;2022-10-17T05:20:21;33.92;;;20.63;;
72949;SDS011;62720;45.710;9.590;2022-10-17T05:22:47;31.02;;;19.20;;
72949;SDS011;62720;45.710;9.590;2022-10-17T05:25:12;33.92;;;18.40;;
72949;SDS011;62720;45.710;9.590;2022-10-17T05:27:37;34.13;;;20.52;;
72949;SDS011;62720;45.710;9.590;2022-10-17T05:30:03;34.88;;;19.40;;
72949;SDS011;62720;45.710;9.590;2022-10-17T05:32:28;38.30;;;20.02;;
72949;SDS011;62720;45.710;9.590;2022-10-17T05:34:54;33.95;;;20.23;;
72949;SDS011;62720;45.710;9.590;2022-10-17T05:37:19;33.92;;;20.48;;
72949;SDS011;62720;45.710;9.590;2022-10-17T05:39:44;34.50;;;18.77;;
72949;SDS011;62720;45.710;9.590;2022-10-17T05:42:09;46.40;;;20.10;;
72949;SDS011;62720;45.710;9.590;2022-10-17T05:44:35;32.77;;;19.30;;
72949;SDS011;62720;45.710;9.590;2022-10-17T05:47:00;34.85;;;20.55;;
72949;SDS011;62720;45.710;9.590;2022-10-17T05:49:25;34.95;;;20.00;;
72949;SDS011;62720;45.710;9.590;2022-10-17T05:51:51;32.72;;;19.55;;
72949;SDS011;62720;45.710;9.590;2022-10-17T05:54:16;32.53;;;18.47;;
72949;SDS011;62720;45.710;9.590;2022-10-17T05:56:41;32.23;;;19.73;;
72949;SDS011;62720;45.710;9.590;2022-10-17T05:59:07;35.88;;;19.92;;
72949;SDS011;62720;45.710;9.590;2022-10-17T06:01:32;35.67;;;19.88;;
72949;SDS011;62720;45.710;9.590;2022-10-17T06:03:57;31.58;;;18.98;;
72949;SDS011;62720;45.710;9.590;2022-10-17T06:06:22;32.43;;;19.03;;
72949;SDS011;62720;45.710;9.590;2022-10-17T06:08:48;31.73;;;18.52;;
72949;SDS011;62720;45.710;9.590;2022-10-17T06:11:13;29.58;;;19.15;;
72949;SDS011;62720;45.710;9.590;2022-10-17T06:13:39;37.47;;;19.85;;
72949;SDS011;62720;45.710;9.590;2022-10-17T06:16:04;31.30;;;18.65;;
72949;SDS011;62720;45.710;9.590;2022-10-17T06:18:29;29.77;;;18.48;;
72949;SDS011;62720;45.710;9.590;2022-10-17T06:21:00;30.67;;;17.70;;
72949;SDS011;62720;45.710;9.590;2022-10-17T06:23:26;28.55;;;17.52;;
72949;SDS011;62720;45.710;9.590;2022-10-17T06:25:51;28.52;;;16.85;;
72949;SDS011;62720;45.710;9.590;2022-10-17T06:28:17;30.67;;;17.25;;
72949;SDS011;62720;45.710;9.590;2022-10-17T06:30:42;25.73;;;16.23;;
72949;SDS011;62720;45.710;9.590;2022-10-17T06:33:07;25.00;;;15.57;;
72949;SDS011;62720;45.710;9.590;2022-10-17T06:35:33;28.23;;;15.47;;
72949;SDS011;62720;45.710;9.590;2022-10-17T06:37:58;25.40;;;14.97;;
72949;SDS011;62720;45.710;9.590;2022-10-17T06:40:23;27.93;;;15.00;;
72949;SDS011;62720;45.710;9.590;2022-10-17T06:42:48;27.63;;;14.87;;
72949;SDS011;62720;45.710;9.590;2022-10-17T06:45:13;24.60;;;13.93;;
72949;SDS011;62720;45.710;9.590;2022-10-17T06:47:39;24.15;;;14.35;;
72949;SDS011;62720;45.710;9.590;2022-10-17T06:50:04;25.58;;;14.18;;
72949;SDS011;62720;45.710;9.590;2022-10-17T06:52:30;23.27;;;13.98;;
72949;SDS011;62720;45.710;9.590;2022-10-17T06:54:55;21.48;;;14.02;;
72949;SDS011;62720;45.710;9.590;2022-10-17T06:57:20;22.80;;;14.23;;
72949;SDS011;62720;45.710;9.590;2022-10-17T06:59:45;23.13;;;13.50;;
72949;SDS011;62720;45.710;9.590;2022-10-17T07:02:11;22.02;;;13.48;;
72949;SDS011;62720;45.710;9.590;2022-10-17T07:04:36;23.00;;;13.95;;
72949;SDS011;62720;45.710;9.590;2022-10-17T07:07:01;22.65;;;14.00;;
72949;SDS011;62720;45.710;9.590;2022-10-17T07:09:27;25.98;;;13.82;;
72949;SDS011;62720;45.710;9.590;2022-10-17T07:11:53;21.10;;;12.55;;
72949;SDS011;62720;45.710;9.590;2022-10-17T07:14:18;22.33;;;13.75;;
72949;SDS011;62720;45.710;9.590;2022-10-17T07:16:43;21.80;;;13.00;;
72949;SDS011;62720;45.710;9.590;2022-10-17T07:19:09;24.02;;;13.63;;
72949;SDS011;62720;45.710;9.590;2022-10-17T07:21:34;25.77;;;12.98;;
72949;SDS011;62720;45.710;9.590;2022-10-17T07:24:00;23.70;;;13.52;;
72949;SDS011;62720;45.710;9.590;2022-10-17T07:26:25;23.40;;;13.70;;
72949;SDS011;62720;45.710;9.590;2022-10-17T07:28:51;24.00;;;14.10;;
72949;SDS011;62720;45.710;9.590;2022-10-17T07:31:17;26.42;;;14.30;;
72949;SDS011;62720;45.710;9.590;2022-10-17T07:33:43;23.05;;;12.77;;
72949;SDS011;62720;45.710;9.590;2022-10-17T07:36:09;22.60;;;14.02;;
72949;SDS011;62720;45.710;9.590;2022-10-17T07:38:35;22.90;;;13.57;;
72949;SDS011;62720;45.710;9.590;2022-10-17T07:41:01;28.17;;;13.30;;
72949;SDS011;62720;45.710;9.590;2022-10-17T07:43:27;22.60;;;12.55;;
72949;SDS011;62720;45.710;9.590;2022-10-17T07:45:52;22.42;;;13.15;;
72949;SDS011;62720;45.710;9.590;2022-10-17T07:48:18;21.45;;;13.15;;
72949;SDS011;62720;45.710;9.590;2022-10-17T07:50:43;21.65;;;12.75;;
72949;SDS011;62720;45.710;9.590;2022-10-17T07:53:09;24.80;;;13.35;;
72949;SDS011;62720;45.710;9.590;2022-10-17T07:55:35;19.50;;;11.27;;
72949;SDS011;62720;45.710;9.590;2022-10-17T07:58:01;22.15;;;12.30;;
72949;SDS011;62720;45.710;9.590;2022-10-17T08:00:26;20.67;;;11.95;;
72949;SDS011;62720;45.710;9.590;2022-10-17T08:02:51;22.33;;;11.53;;
72949;SDS011;62720;45.710;9.590;2022-10-17T08:05:16;20.17;;;12.17;;
72949;SDS011;62720;45.710;9.590;2022-10-17T08:07:41;23.50;;;11.67;;
72949;SDS011;62720;45.710;9.590;2022-10-17T08:10:07;20.05;;;11.52;;
72949;SDS011;62720;45.710;9.590;2022-10-17T08:12:32;17.38;;;11.05;;
72949;SDS011;62720;45.710;9.590;2022-10-17T08:15:00;16.58;;;10.88;;
72949;SDS011;62720;45.710;9.590;2022-10-17T08:17:26;19.27;;;10.63;;
72949;SDS011;62720;45.710;9.590;2022-10-17T08:19:51;17.33;;;11.00;;
72949;SDS011;62720;45.710;9.590;2022-10-17T08:22:16;18.70;;;10.75;;
72949;SDS011;62720;45.710;9.590;2022-10-17T08:24:41;18.00;;;10.80;;
72949;SDS011;62720;45.710;9.590;2022-10-17T08:27:07;20.20;;;11.77;;
72949;SDS011;62720;45.710;9.590;2022-10-17T08:29:36;22.08;;;12.07;;
72949;SDS011;62720;45.710;9.590;2022-10-17T08:32:01;21.48;;;10.93;;
72949;SDS011;62720;45.710;9.590;2022-10-17T08:34:26;18.03;;;11.10;;
72949;SDS011;62720;45.710;9.590;2022-10-17T08:36:51;17.53;;;11.10;;
72949;SDS011;62720;45.710;9.590;2022-10-17T08:39:17;20.37;;;10.80;;
72949;SDS011;62720;45.710;9.590;2022-10-17T08:41:52;16.43;;;10.50;;
72949;SDS011;62720;45.710;9.590;2022-10-17T08:47:03;15.68;;;9.52;;
72949;SDS011;62720;45.710;9.590;2022-10-17T08:49:36;17.25;;;10.38;;
72949;SDS011;62720;45.710;9.590;2022-10-17T08:52:05;19.80;;;9.98;;
72949;SDS011;62720;45.710;9.590;2022-10-17T08:54:39;16.75;;;10.63;;
72949;SDS011;62720;45.710;9.590;2022-10-17T08:57:08;16.17;;;10.77;;
72949;SDS011;62720;45.710;9.590;2022-10-17T08:59:35;16.38;;;10.68;;
72949;SDS011;62720;45.710;9.590;2022-10-17T09:02:02;19.00;;;12.30;;
72949;SDS011;62720;45.710;9.590;2022-10-17T09:09:57;15.38;;;11.05;;
72949;SDS011;62720;45.710;9.590;2022-10-17T09:19:58;27.47;;;17.30;;
72949;SDS011;62720;45.710;9.590;2022-10-17T09:22:25;27.42;;;17.85;;
72949;SDS011;62720;45.710;9.590;2022-10-17T09:24:56;27.25;;;16.70;;
72949;SDS011;62720;45.710;9.590;2022-10-17T09:27:24;27.90;;;17.45;;
72949;SDS011;62720;45.710;9.590;2022-10-17T09:29:50;26.30;;;17.88;;
72949;SDS011;62720;45.710;9.590;2022-10-17T09:34:42;29.17;;;19.20;;
72949;SDS011;62720;45.710;9.590;2022-10-17T09:37:12;28.88;;;19.75;;
72949;SDS011;62720;45.710;9.590;2022-10-17T09:39:38;28.80;;;20.25;;
72949;SDS011;62720;45.710;9.590;2022-10-17T09:42:05;36.03;;;20.70;;
72949;SDS011;62720;45.710;9.590;2022-10-17T09:44:34;26.67;;;19.33;;
72949;SDS011;62720;45.710;9.590;2022-10-17T09:49:30;28.70;;;20.70;;
72949;SDS011;62720;45.710;9.590;2022-10-17T09:51:56;31.52;;;21.35;;
72949;SDS011;62720;45.710;9.590;2022-10-17T09:54:25;32.50;;;21.10;;
72949;SDS011;62720;45.710;9.590;2022-10-17T09:56:57;32.63;;;22.05;;
72949;SDS011;62720;45.710;9.590;2022-10-17T09:59:29;28.60;;;18.85;;
72949;SDS011;62720;45.710;9.590;2022-10-17T10:01:58;27.55;;;18.42;;
72949;SDS011;62720;45.710;9.590;2022-10-17T10:04:31;34.97;;;22.65;;
72949;SDS011;62720;45.710;9.590;2022-10-17T10:07:00;35.20;;;22.70;;
72949;SDS011;62720;45.710;9.590;2022-10-17T10:09:26;33.35;;;21.88;;
72949;SDS011;62720;45.710;9.590;2022-10-17T10:11:56;33.10;;;22.90;;
72949;SDS011;62720;45.710;9.590;2022-10-17T10:16:47;33.73;;;21.37;;
72949;SDS011;62720;45.710;9.590;2022-10-17T10:19:33;31.13;;;22.98;;
72949;SDS011;62720;45.710;9.590;2022-10-17T10:22:00;33.90;;;23.92;;
72949;SDS011;62720;45.710;9.590;2022-10-17T10:24:25;36.10;;;25.23;;
72949;SDS011;62720;45.710;9.590;2022-10-17T10:26:51;35.33;;;24.52;;
72949;SDS011;62720;45.710;9.590;2022-10-17T10:31:46;35.20;;;24.52;;
72949;SDS011;62720;45.710;9.590;2022-10-17T10:34:26;34.50;;;23.20;;
72949;SDS011;62720;45.710;9.590;2022-10-17T10:37:00;34.05;;;23.83;;
72949;SDS011;62720;45.710;9.590;2022-10-17T10:40:14;34.65;;;22.27;;
72949;SDS011;62720;45.710;9.590;2022-10-17T10:42:19;35.10;;;23.35;;
72949;SDS011;62720;45.710;9.590;2022-10-17T10:44:45;29.45;;;21.10;;
72949;SDS011;62720;45.710;9.590;2022-10-17T10:47:14;26.85;;;19.33;;
72949;SDS011;62720;45.710;9.590;2022-10-17T10:49:41;30.55;;;20.65;;
72949;SDS011;62720;45.710;9.590;2022-10-17T10:52:06;34.28;;;20.25;;
72949;SDS011;62720;45.710;9.590;2022-10-17T10:54:36;29.77;;;20.65;;
72949;SDS011;62720;45.710;9.590;2022-10-17T10:57:04;30.05;;;17.65;;
72949;SDS011;62720;45.710;9.590;2022-10-17T10:59:34;23.70;;;15.93;;
72949;SDS011;62720;45.710;9.590;2022-10-17T11:04:41;30.20;;;17.50;;
72949;SDS011;62720;45.710;9.590;2022-10-17T11:12:33;28.25;;;17.38;;
72949;SDS011;62720;45.710;9.590;2022-10-17T11:15:23;27.52;;;19.67;;
72949;SDS011;62720;45.710;9.590;2022-10-17T11:22:53;24.52;;;16.83;;
72949;SDS011;62720;45.710;9.590;2022-10-17T11:25:30;27.75;;;18.98;;
72949;SDS011;62720;45.710;9.590;2022-10-17T11:30:21;34.97;;;21.42;;
72949;SDS011;62720;45.710;9.590;2022-10-17T11:33:05;37.33;;;24.70;;
72949;SDS011;62720;45.710;9.590;2022-10-17T11:35:34;31.92;;;23.05;;
72949;SDS011;62720;45.710;9.590;2022-10-17T11:40:28;38.53;;;25.83;;
72949;SDS011;62720;45.710;9.590;2022-10-17T11:42:56;35.80;;;24.45;;
72949;SDS011;62720;45.710;9.590;2022-10-17T11:45:24;34.00;;;22.65;;
72949;SDS011;62720;45.710;9.590;2022-10-17T11:47:51;33.92;;;23.60;;
72949;SDS011;62720;45.710;9.590;2022-10-17T11:55:16;36.13;;;24.57;;
72949;SDS011;62720;45.710;9.590;2022-10-17T11:57:55;39.10;;;25.42;;
72949;SDS011;62720;45.710;9.590;2022-10-17T12:00:29;41.70;;;26.83;;
72949;SDS011;62720;45.710;9.590;2022-10-17T12:05:55;37.72;;;24.90;;
72949;SDS011;62720;45.710;9.590;2022-10-17T12:15:56;38.88;;;25.48;;
72949;SDS011;62720;45.710;9.590;2022-10-17T12:18:25;41.92;;;25.20;;
72949;SDS011;62720;45.710;9.590;2022-10-17T12:20:57;35.28;;;24.20;;
72949;SDS011;62720;45.710;9.590;2022-10-17T12:23:26;44.17;;;26.33;;
72949;SDS011;62720;45.710;9.590;2022-10-17T12:25:53;43.30;;;27.55;;
72949;SDS011;62720;45.710;9.590;2022-10-17T12:33:16;44.20;;;28.55;;
72949;SDS011;62720;45.710;9.590;2022-10-17T12:35:50;46.22;;;27.42;;
72949;SDS011;62720;45.710;9.590;2022-10-17T12:45:50;46.10;;;29.15;;
72949;SDS011;62720;45.710;9.590;2022-10-17T12:53:35;50.67;;;31.55;;
72949;SDS011;62720;45.710;9.590;2022-10-17T12:56:02;51.80;;;27.02;;
72949;SDS011;62720;45.710;9.590;2022-10-17T12:58:28;50.90;;;30.40;;
72949;SDS011;62720;45.710;9.590;2022-10-17T13:00:55;48.53;;;30.50;;
72949;SDS011;62720;45.710;9.590;2022-10-17T13:03:22;48.83;;;30.48;;
72949;SDS011;62720;45.710;9.590;2022-10-17T13:05:49;44.17;;;29.45;;
72949;SDS011;62720;45.710;9.590;2022-10-17T13:08:22;48.20;;;29.85;;
72949;SDS011;62720;45.710;9.590;2022-10-17T13:10:49;51.88;;;31.17;;
72949;SDS011;62720;45.710;9.590;2022-10-17T13:13:16;50.05;;;30.90;;
72949;SDS011;62720;45.710;9.590;2022-10-17T13:15:50;47.25;;;29.45;;
72949;SDS011;62720;45.710;9.590;2022-10-17T13:18:19;50.83;;;31.40;;
72949;SDS011;62720;45.710;9.590;2022-10-17T13:23:23;48.17;;;30.02;;
72949;SDS011;62720;45.710;9.590;2022-10-17T13:26:11;54.35;;;31.90;;
72949;SDS011;62720;45.710;9.590;2022-10-17T13:28:37;50.97;;;31.65;;
72949;SDS011;62720;45.710;9.590;2022-10-17T13:31:02;58.08;;;33.95;;
72949;SDS011;62720;45.710;9.590;2022-10-17T13:35:53;44.70;;;29.03;;
72949;SDS011;62720;45.710;9.590;2022-10-17T13:38:18;47.83;;;29.07;;
72949;SDS011;62720;45.710;9.590;2022-10-17T13:40:46;47.33;;;28.38;;
72949;SDS011;62720;45.710;9.590;2022-10-17T13:43:18;47.88;;;28.38;;
72949;SDS011;62720;45.710;9.590;2022-10-17T13:45:45;53.33;;;30.23;;
72949;SDS011;62720;45.710;9.590;2022-10-17T13:48:22;43.83;;;28.73;;
72949;SDS011;62720;45.710;9.590;2022-10-17T13:50:49;51.55;;;31.35;;
72949;SDS011;62720;45.710;9.590;2022-10-17T13:53:28;47.60;;;30.50;;
72949;SDS011;62720;45.710;9.590;2022-10-17T13:55:55;49.85;;;31.77;;
72949;SDS011;62720;45.710;9.590;2022-10-17T13:58:20;46.25;;;28.42;;
72949;SDS011;62720;45.710;9.590;2022-10-17T14:00:46;57.85;;;28.80;;
72949;SDS011;62720;45.710;9.590;2022-10-17T14:03:13;50.80;;;29.50;;
72949;SDS011;62720;45.710;9.590;2022-10-17T14:05:57;52.92;;;30.48;;
72949;SDS011;62720;45.710;9.590;2022-10-17T14:08:22;45.55;;;28.95;;
72949;SDS011;62720;45.710;9.590;2022-10-17T14:10:48;52.72;;;28.75;;
72949;SDS011;62720;45.710;9.590;2022-10-17T14:13:17;42.05;;;27.30;;
72949;SDS011;62720;45.710;9.590;2022-10-17T14:15:43;45.20;;;27.55;;
72949;SDS011;62720;45.710;9.590;2022-10-17T14:18:13;51.33;;;31.63;;
72949;SDS011;62720;45.710;9.590;2022-10-17T14:20:40;52.25;;;32.05;;
72949;SDS011;62720;45.710;9.590;2022-10-17T14:28:36;48.47;;;28.43;;
72949;SDS011;62720;45.710;9.590;2022-10-17T14:31:10;49.03;;;28.88;;
72949;SDS011;62720;45.710;9.590;2022-10-17T14:33:37;47.15;;;28.38;;
72949;SDS011;62720;45.710;9.590;2022-10-17T14:36:06;48.22;;;26.92;;
72949;SDS011;62720;45.710;9.590;2022-10-17T14:38:31;47.92;;;29.27;;
72949;SDS011;62720;45.710;9.590;2022-10-17T14:40:58;40.78;;;24.25;;
72949;SDS011;62720;45.710;9.590;2022-10-17T14:43:25;52.00;;;30.20;;
72949;SDS011;62720;45.710;9.590;2022-10-17T14:45:52;52.60;;;29.88;;
72949;SDS011;62720;45.710;9.590;2022-10-17T14:48:21;47.13;;;29.25;;
72949;SDS011;62720;45.710;9.590;2022-10-17T14:53:31;43.47;;;27.10;;
72949;SDS011;62720;45.710;9.590;2022-10-17T14:55:57;41.22;;;25.50;;
72949;SDS011;62720;45.710;9.590;2022-10-17T14:58:24;46.53;;;27.02;;
72949;SDS011;62720;45.710;9.590;2022-10-17T15:00:49;43.38;;;27.40;;
72949;SDS011;62720;45.710;9.590;2022-10-17T15:03:14;39.30;;;27.20;;
72949;SDS011;62720;45.710;9.590;2022-10-17T15:05:43;40.38;;;25.60;;
72949;SDS011;62720;45.710;9.590;2022-10-17T15:08:15;40.33;;;26.40;;
72949;SDS011;62720;45.710;9.590;2022-10-17T15:10:40;43.42;;;28.23;;
72949;SDS011;62720;45.710;9.590;2022-10-17T15:13:06;44.25;;;27.73;;
72949;SDS011;62720;45.710;9.590;2022-10-17T15:15:32;39.33;;;25.98;;
72949;SDS011;62720;45.710;9.590;2022-10-17T15:17:57;43.07;;;28.10;;
72949;SDS011;62720;45.710;9.590;2022-10-17T15:20:23;43.17;;;27.98;;
72949;SDS011;62720;45.710;9.590;2022-10-17T15:25:16;41.45;;;26.80;;
72949;SDS011;62720;45.710;9.590;2022-10-17T15:27:41;46.57;;;27.97;;
72949;SDS011;62720;45.710;9.590;2022-10-17T15:30:13;43.47;;;25.87;;
72949;SDS011;62720;45.710;9.590;2022-10-17T15:32:40;34.80;;;21.83;;
72949;SDS011;62720;45.710;9.590;2022-10-17T15:35:05;48.73;;;29.27;;
72949;SDS011;62720;45.710;9.590;2022-10-17T15:37:32;46.80;;;28.92;;
72949;SDS011;62720;45.710;9.590;2022-10-17T15:39:57;47.00;;;27.85;;
72949;SDS011;62720;45.710;9.590;2022-10-17T15:42:26;48.58;;;30.35;;
72949;SDS011;62720;45.710;9.590;2022-10-17T15:44:52;47.70;;;27.85;;
72949;SDS011;62720;45.710;9.590;2022-10-17T15:47:24;57.47;;;36.00;;
72949;SDS011;62720;45.710;9.590;2022-10-17T15:49:50;45.15;;;26.92;;
72949;SDS011;62720;45.710;9.590;2022-10-17T15:52:15;48.73;;;28.90;;
72949;SDS011;62720;45.710;9.590;2022-10-17T15:54:40;45.45;;;26.55;;
72949;SDS011;62720;45.710;9.590;2022-10-17T15:57:07;44.35;;;26.65;;
72949;SDS011;62720;45.710;9.590;2022-10-17T15:59:38;38.78;;;23.10;;
72949;SDS011;62720;45.710;9.590;2022-10-17T16:02:03;33.53;;;20.33;;
72949;SDS011;62720;45.710;9.590;2022-10-17T16:04:28;34.55;;;21.50;;
72949;SDS011;62720;45.710;9.590;2022-10-17T16:06:54;36.67;;;21.98;;
72949;SDS011;62720;45.710;9.590;2022-10-17T16:09:19;49.90;;;28.35;;
72949;SDS011;62720;45.710;9.590;2022-10-17T16:11:45;38.33;;;23.47;;
72949;SDS011;62720;45.710;9.590;2022-10-17T16:14:11;37.25;;;21.73;;
72949;SDS011;62720;45.710;9.590;2022-10-17T16:16:37;36.97;;;23.23;;
72949;SDS011;62720;45.710;9.590;2022-10-17T16:19:02;36.75;;;22.20;;
72949;SDS011;62720;45.710;9.590;2022-10-17T16:21:29;42.42;;;24.40;;
72949;SDS011;62720;45.710;9.590;2022-10-17T16:23:54;45.97;;;26.27;;
72949;SDS011;62720;45.710;9.590;2022-10-17T16:26:20;38.65;;;23.55;;
72949;SDS011;62720;45.710;9.590;2022-10-17T16:28:45;38.08;;;21.60;;